sensor_id;sensor_type;location;lat;lon;timestamp;P1;durP1;ratioP1;P2;durP2;ratioP2
40609;SDS011;26316;55.976;37.140;2023-04-25T00:01:20;5.38;;;3.80;;
40609;SDS011;26316;55.976;37.140;2023-04-25T00:03:47;6.18;;;3.80;;
40609;SDS011;26316;55.976;37.140;2023-04-25T00:06:13;7.22;;;3.88;;
40609;SDS011;26316;55.976;37.140;2023-04-25T00:08:39;4.47;;;3.33;;
40609;SDS011;26316;55.976;37.140;2023-04-25T00:11:05;5.35;;;3.47;;
40609;SDS011;26316;55.976;37.140;2023-04-25T00:13:31;6.28;;;3.60;;
40609;SDS011;26316;55.976;37.140;2023-04-25T00:15:56;5.78;;;3.63;;
40609;SDS011;26316;55.976;37.140;2023-04-25T00:18:23;7.32;;;3.60;;
40609;SDS011;26316;55.976;37.140;2023-04-25T00:20:49;6.65;;;3.70;;
40609;SDS011;26316;55.976;37.140;2023-04-25T00:23:18;5.53;;;3.42;;
40609;SDS011;26316;55.976;37.140;2023-04-25T00:25:44;8.48;;;4.30;;
40609;SDS011;26316;55.976;37.140;2023-04-25T00:28:11;11.55;;;4.53;;
40609;SDS011;26316;55.976;37.140;2023-04-25T00:30:37;4.72;;;3.78;;
40609;SDS011;26316;55.976;37.140;2023-04-25T00:33:04;4.60;;;3.70;;
40609;SDS011;26316;55.976;37.140;2023-04-25T00:35:29;4.65;;;3.10;;
40609;SDS011;26316;55.976;37.140;2023-04-25T00:37:55;4.25;;;3.80;;
40609;SDS011;26316;55.976;37.140;2023-04-25T00:40:21;6.97;;;3.75;;
40609;SDS011;26316;55.976;37.140;2023-04-25T00:42:47;8.10;;;3.80;;
40609;SDS011;26316;55.976;37.140;2023-04-25T00:45:13;9.02;;;3.75;;
40609;SDS011;26316;55.976;37.140;2023-04-25T00:47:42;4.95;;;3.75;;
40609;SDS011;26316;55.976;37.140;2023-04-25T00:50:08;5.38;;;3.38;;
40609;SDS011;26316;55.976;37.140;2023-04-25T00:52:35;4.63;;;3.63;;
40609;SDS011;26316;55.976;37.140;2023-04-25T00:55:02;4.55;;;3.25;;
40609;SDS011;26316;55.976;37.140;2023-04-25T00:57:29;6.10;;;3.58;;
40609;SDS011;26316;55.976;37.140;2023-04-25T00:59:54;3.58;;;3.25;;
40609;SDS011;26316;55.976;37.140;2023-04-25T01:02:20;6.85;;;4.13;;
40609;SDS011;26316;55.976;37.140;2023-04-25T01:04:47;7.13;;;3.47;;
40609;SDS011;26316;55.976;37.140;2023-04-25T01:07:13;5.70;;;3.95;;
40609;SDS011;26316;55.976;37.140;2023-04-25T01:09:40;7.70;;;3.83;;
40609;SDS011;26316;55.976;37.140;2023-04-25T01:12:07;6.72;;;3.90;;
40609;SDS011;26316;55.976;37.140;2023-04-25T01:14:34;5.10;;;3.72;;
40609;SDS011;26316;55.976;37.140;2023-04-25T01:17:00;8.23;;;3.95;;
40609;SDS011;26316;55.976;37.140;2023-04-25T01:19:26;8.15;;;4.10;;
40609;SDS011;26316;55.976;37.140;2023-04-25T01:21:52;9.20;;;3.85;;
40609;SDS011;26316;55.976;37.140;2023-04-25T01:24:18;6.97;;;3.97;;
40609;SDS011;26316;55.976;37.140;2023-04-25T01:26:44;8.77;;;4.15;;
40609;SDS011;26316;55.976;37.140;2023-04-25T01:29:21;6.85;;;3.90;;
40609;SDS011;26316;55.976;37.140;2023-04-25T01:31:48;9.00;;;4.78;;
40609;SDS011;26316;55.976;37.140;2023-04-25T01:34:14;6.15;;;4.00;;
40609;SDS011;26316;55.976;37.140;2023-04-25T01:36:40;8.65;;;4.15;;
40609;SDS011;26316;55.976;37.140;2023-04-25T01:39:06;8.07;;;3.72;;
40609;SDS011;26316;55.976;37.140;2023-04-25T01:41:33;11.25;;;4.47;;
40609;SDS011;26316;55.976;37.140;2023-04-25T01:44:00;8.15;;;4.03;;
40609;SDS011;26316;55.976;37.140;2023-04-25T01:46:27;7.13;;;4.20;;
40609;SDS011;26316;55.976;37.140;2023-04-25T01:48:53;5.47;;;4.03;;
40609;SDS011;26316;55.976;37.140;2023-04-25T01:51:18;5.28;;;4.10;;
40609;SDS011;26316;55.976;37.140;2023-04-25T01:53:44;5.03;;;4.20;;
40609;SDS011;26316;55.976;37.140;2023-04-25T01:56:11;5.63;;;3.55;;
40609;SDS011;26316;55.976;37.140;2023-04-25T01:58:38;7.93;;;4.68;;
40609;SDS011;26316;55.976;37.140;2023-04-25T02:01:11;7.93;;;4.13;;
40609;SDS011;26316;55.976;37.140;2023-04-25T02:03:46;6.50;;;4.35;;
40609;SDS011;26316;55.976;37.140;2023-04-25T02:06:21;5.90;;;3.85;;
40609;SDS011;26316;55.976;37.140;2023-04-25T02:08:48;6.80;;;4.18;;
40609;SDS011;26316;55.976;37.140;2023-04-25T02:11:15;7.10;;;4.00;;
40609;SDS011;26316;55.976;37.140;2023-04-25T02:13:46;5.53;;;4.30;;
40609;SDS011;26316;55.976;37.140;2023-04-25T02:16:21;7.95;;;4.10;;
40609;SDS011;26316;55.976;37.140;2023-04-25T02:18:46;6.68;;;4.47;;
40609;SDS011;26316;55.976;37.140;2023-04-25T02:21:12;5.38;;;4.05;;
40609;SDS011;26316;55.976;37.140;2023-04-25T02:23:38;5.95;;;3.90;;
40609;SDS011;26316;55.976;37.140;2023-04-25T02:26:04;7.95;;;4.25;;
40609;SDS011;26316;55.976;37.140;2023-04-25T02:28:30;5.22;;;4.35;;
40609;SDS011;26316;55.976;37.140;2023-04-25T02:30:55;7.43;;;3.88;;
40609;SDS011;26316;55.976;37.140;2023-04-25T02:33:23;7.28;;;4.10;;
40609;SDS011;26316;55.976;37.140;2023-04-25T02:35:49;13.13;;;4.20;;
40609;SDS011;26316;55.976;37.140;2023-04-25T02:38:14;6.00;;;3.90;;
40609;SDS011;26316;55.976;37.140;2023-04-25T02:40:40;5.75;;;3.63;;
40609;SDS011;26316;55.976;37.140;2023-04-25T02:43:06;7.10;;;3.90;;
40609;SDS011;26316;55.976;37.140;2023-04-25T02:45:32;7.88;;;3.92;;
40609;SDS011;26316;55.976;37.140;2023-04-25T02:47:58;7.82;;;4.00;;
40609;SDS011;26316;55.976;37.140;2023-04-25T02:50:23;6.25;;;3.75;;
40609;SDS011;26316;55.976;37.140;2023-04-25T02:52:49;9.27;;;4.15;;
40609;SDS011;26316;55.976;37.140;2023-04-25T02:55:20;6.28;;;3.72;;
40609;SDS011;26316;55.976;37.140;2023-04-25T02:57:46;7.00;;;4.18;;
40609;SDS011;26316;55.976;37.140;2023-04-25T03:00:19;5.80;;;3.78;;
40609;SDS011;26316;55.976;37.140;2023-04-25T03:02:45;6.85;;;3.67;;
40609;SDS011;26316;55.976;37.140;2023-04-25T03:05:10;7.72;;;3.92;;
40609;SDS011;26316;55.976;37.140;2023-04-25T03:07:37;5.18;;;3.70;;
40609;SDS011;26316;55.976;37.140;2023-04-25T03:10:07;7.03;;;3.78;;
40609;SDS011;26316;55.976;37.140;2023-04-25T03:15:00;9.77;;;3.88;;
40609;SDS011;26316;55.976;37.140;2023-04-25T03:17:27;7.72;;;4.18;;
40609;SDS011;26316;55.976;37.140;2023-04-25T03:19:53;5.93;;;3.60;;
40609;SDS011;26316;55.976;37.140;2023-04-25T03:22:19;9.18;;;4.03;;
40609;SDS011;26316;55.976;37.140;2023-04-25T03:24:45;5.43;;;3.47;;
40609;SDS011;26316;55.976;37.140;2023-04-25T03:27:10;7.97;;;4.43;;
40609;SDS011;26316;55.976;37.140;2023-04-25T03:29:36;8.50;;;3.90;;
40609;SDS011;26316;55.976;37.140;2023-04-25T03:32:03;5.00;;;3.55;;
40609;SDS011;26316;55.976;37.140;2023-04-25T03:34:29;6.85;;;3.88;;
40609;SDS011;26316;55.976;37.140;2023-04-25T03:36:56;7.95;;;3.85;;
40609;SDS011;26316;55.976;37.140;2023-04-25T03:39:22;7.80;;;3.65;;
40609;SDS011;26316;55.976;37.140;2023-04-25T03:41:50;5.35;;;3.72;;
40609;SDS011;26316;55.976;37.140;2023-04-25T03:44:17;9.25;;;4.22;;
40609;SDS011;26316;55.976;37.140;2023-04-25T03:46:43;7.57;;;3.92;;
40609;SDS011;26316;55.976;37.140;2023-04-25T03:49:09;8.25;;;3.92;;
40609;SDS011;26316;55.976;37.140;2023-04-25T03:51:55;10.73;;;3.83;;
40609;SDS011;26316;55.976;37.140;2023-04-25T03:54:21;11.93;;;4.60;;
40609;SDS011;26316;55.976;37.140;2023-04-25T03:56:57;8.43;;;4.10;;
40609;SDS011;26316;55.976;37.140;2023-04-25T03:59:26;6.20;;;3.97;;
40609;SDS011;26316;55.976;37.140;2023-04-25T04:01:52;7.00;;;3.85;;
40609;SDS011;26316;55.976;37.140;2023-04-25T04:04:18;4.43;;;3.42;;
40609;SDS011;26316;55.976;37.140;2023-04-25T04:06:44;7.97;;;3.80;;
40609;SDS011;26316;55.976;37.140;2023-04-25T04:09:15;5.53;;;3.72;;
40609;SDS011;26316;55.976;37.140;2023-04-25T04:11:42;5.13;;;3.55;;
40609;SDS011;26316;55.976;37.140;2023-04-25T04:14:08;5.60;;;3.67;;
40609;SDS011;26316;55.976;37.140;2023-04-25T04:16:37;8.43;;;3.83;;
40609;SDS011;26316;55.976;37.140;2023-04-25T04:19:03;8.40;;;3.90;;
40609;SDS011;26316;55.976;37.140;2023-04-25T04:21:31;8.35;;;3.83;;
40609;SDS011;26316;55.976;37.140;2023-04-25T04:23:57;6.68;;;3.80;;
40609;SDS011;26316;55.976;37.140;2023-04-25T04:26:27;6.18;;;3.92;;
40609;SDS011;26316;55.976;37.140;2023-04-25T04:29:03;7.68;;;3.83;;
40609;SDS011;26316;55.976;37.140;2023-04-25T04:31:55;7.55;;;3.85;;
40609;SDS011;26316;55.976;37.140;2023-04-25T04:34:20;4.53;;;3.42;;
40609;SDS011;26316;55.976;37.140;2023-04-25T04:36:47;5.75;;;3.60;;
40609;SDS011;26316;55.976;37.140;2023-04-25T04:39:14;10.13;;;3.83;;
40609;SDS011;26316;55.976;37.140;2023-04-25T04:42:04;9.23;;;3.83;;
40609;SDS011;26316;55.976;37.140;2023-04-25T04:44:53;3.65;;;3.30;;
40609;SDS011;26316;55.976;37.140;2023-04-25T04:47:26;5.57;;;3.92;;
40609;SDS011;26316;55.976;37.140;2023-04-25T04:50:19;7.35;;;3.20;;
40609;SDS011;26316;55.976;37.140;2023-04-25T04:53:04;5.25;;;3.15;;
40609;SDS011;26316;55.976;37.140;2023-04-25T04:56:01;7.63;;;3.65;;
40609;SDS011;26316;55.976;37.140;2023-04-25T04:58:45;9.20;;;3.20;;
40609;SDS011;26316;55.976;37.140;2023-04-25T05:01:33;6.60;;;3.30;;
40609;SDS011;26316;55.976;37.140;2023-04-25T05:04:15;5.22;;;3.10;;
40609;SDS011;26316;55.976;37.140;2023-04-25T05:07:18;7.72;;;3.40;;
40609;SDS011;26316;55.976;37.140;2023-04-25T05:10:06;7.03;;;3.47;;
40609;SDS011;26316;55.976;37.140;2023-04-25T05:12:41;6.45;;;3.67;;
40609;SDS011;26316;55.976;37.140;2023-04-25T05:15:07;10.65;;;3.13;;
40609;SDS011;26316;55.976;37.140;2023-04-25T05:18:05;7.78;;;3.45;;
40609;SDS011;26316;55.976;37.140;2023-04-25T05:20:40;7.82;;;3.28;;
40609;SDS011;26316;55.976;37.140;2023-04-25T05:23:15;7.63;;;3.35;;
40609;SDS011;26316;55.976;37.140;2023-04-25T05:26:01;7.63;;;3.80;;
40609;SDS011;26316;55.976;37.140;2023-04-25T05:28:57;5.07;;;3.50;;
40609;SDS011;26316;55.976;37.140;2023-04-25T05:31:37;8.40;;;3.05;;
40609;SDS011;26316;55.976;37.140;2023-04-25T05:34:12;4.35;;;2.95;;
40609;SDS011;26316;55.976;37.140;2023-04-25T05:36:44;5.82;;;3.20;;
40609;SDS011;26316;55.976;37.140;2023-04-25T05:39:17;8.73;;;3.33;;
40609;SDS011;26316;55.976;37.140;2023-04-25T05:42:06;11.20;;;3.70;;
40609;SDS011;26316;55.976;37.140;2023-04-25T05:45:07;4.90;;;3.25;;
40609;SDS011;26316;55.976;37.140;2023-04-25T05:47:55;4.63;;;2.92;;
40609;SDS011;26316;55.976;37.140;2023-04-25T05:50:32;5.65;;;3.33;;
40609;SDS011;26316;55.976;37.140;2023-04-25T05:53:03;6.50;;;2.42;;
40609;SDS011;26316;55.976;37.140;2023-04-25T05:55:39;5.82;;;2.85;;
40609;SDS011;26316;55.976;37.140;2023-04-25T05:58:25;6.70;;;3.13;;
40609;SDS011;26316;55.976;37.140;2023-04-25T06:00:52;5.85;;;3.00;;
40609;SDS011;26316;55.976;37.140;2023-04-25T06:03:18;3.33;;;2.70;;
40609;SDS011;26316;55.976;37.140;2023-04-25T06:05:44;7.38;;;3.00;;
40609;SDS011;26316;55.976;37.140;2023-04-25T06:08:10;6.93;;;3.35;;
40609;SDS011;26316;55.976;37.140;2023-04-25T06:10:37;4.05;;;3.03;;
40609;SDS011;26316;55.976;37.140;2023-04-25T06:13:03;4.88;;;3.05;;
40609;SDS011;26316;55.976;37.140;2023-04-25T06:15:30;5.05;;;3.15;;
40609;SDS011;26316;55.976;37.140;2023-04-25T06:17:59;4.88;;;2.70;;
40609;SDS011;26316;55.976;37.140;2023-04-25T06:20:24;4.22;;;3.08;;
40609;SDS011;26316;55.976;37.140;2023-04-25T06:22:52;5.68;;;2.60;;
40609;SDS011;26316;55.976;37.140;2023-04-25T06:25:19;5.35;;;3.13;;
40609;SDS011;26316;55.976;37.140;2023-04-25T06:27:45;4.38;;;2.67;;
40609;SDS011;26316;55.976;37.140;2023-04-25T06:30:11;6.07;;;3.17;;
40609;SDS011;26316;55.976;37.140;2023-04-25T06:32:38;8.07;;;2.80;;
40609;SDS011;26316;55.976;37.140;2023-04-25T06:35:05;12.35;;;3.20;;
40609;SDS011;26316;55.976;37.140;2023-04-25T06:37:32;10.75;;;2.95;;
40609;SDS011;26316;55.976;37.140;2023-04-25T06:39:58;7.28;;;3.10;;
40609;SDS011;26316;55.976;37.140;2023-04-25T06:42:24;2.95;;;2.58;;
40609;SDS011;26316;55.976;37.140;2023-04-25T06:44:57;3.28;;;2.70;;
40609;SDS011;26316;55.976;37.140;2023-04-25T06:47:23;6.97;;;2.83;;
40609;SDS011;26316;55.976;37.140;2023-04-25T06:49:49;4.38;;;2.67;;
40609;SDS011;26316;55.976;37.140;2023-04-25T06:52:15;6.88;;;3.13;;
40609;SDS011;26316;55.976;37.140;2023-04-25T06:54:43;7.35;;;3.40;;
40609;SDS011;26316;55.976;37.140;2023-04-25T06:57:29;4.07;;;2.63;;
40609;SDS011;26316;55.976;37.140;2023-04-25T07:00:05;5.45;;;3.08;;
40609;SDS011;26316;55.976;37.140;2023-04-25T07:02:35;3.25;;;2.58;;
40609;SDS011;26316;55.976;37.140;2023-04-25T07:05:02;5.97;;;3.33;;
40609;SDS011;26316;55.976;37.140;2023-04-25T07:07:30;5.45;;;2.28;;
40609;SDS011;26316;55.976;37.140;2023-04-25T07:09:57;7.97;;;2.60;;
40609;SDS011;26316;55.976;37.140;2023-04-25T07:12:23;6.35;;;3.05;;
40609;SDS011;26316;55.976;37.140;2023-04-25T07:14:49;8.02;;;2.80;;
40609;SDS011;26316;55.976;37.140;2023-04-25T07:17:14;7.93;;;3.47;;
40609;SDS011;26316;55.976;37.140;2023-04-25T07:19:41;8.27;;;2.97;;
40609;SDS011;26316;55.976;37.140;2023-04-25T07:22:08;5.10;;;3.17;;
40609;SDS011;26316;55.976;37.140;2023-04-25T07:24:35;5.93;;;2.58;;
40609;SDS011;26316;55.976;37.140;2023-04-25T07:27:02;6.72;;;3.15;;
40609;SDS011;26316;55.976;37.140;2023-04-25T07:29:37;8.70;;;3.03;;
40609;SDS011;26316;55.976;37.140;2023-04-25T07:32:03;5.15;;;2.83;;
40609;SDS011;26316;55.976;37.140;2023-04-25T07:34:29;5.07;;;2.95;;
40609;SDS011;26316;55.976;37.140;2023-04-25T07:36:55;5.65;;;2.95;;
40609;SDS011;26316;55.976;37.140;2023-04-25T07:39:23;5.75;;;3.28;;
40609;SDS011;26316;55.976;37.140;2023-04-25T07:41:49;6.13;;;2.92;;
40609;SDS011;26316;55.976;37.140;2023-04-25T07:44:21;6.65;;;2.92;;
40609;SDS011;26316;55.976;37.140;2023-04-25T07:46:47;10.98;;;3.13;;
40609;SDS011;26316;55.976;37.140;2023-04-25T07:49:13;7.40;;;3.53;;
40609;SDS011;26316;55.976;37.140;2023-04-25T07:51:42;4.07;;;2.87;;
40609;SDS011;26316;55.976;37.140;2023-04-25T07:54:14;5.20;;;3.03;;
40609;SDS011;26316;55.976;37.140;2023-04-25T07:56:45;4.57;;;2.63;;
40609;SDS011;26316;55.976;37.140;2023-04-25T07:59:11;4.35;;;2.80;;
40609;SDS011;26316;55.976;37.140;2023-04-25T08:01:38;5.72;;;2.85;;
40609;SDS011;26316;55.976;37.140;2023-04-25T08:04:06;2.80;;;2.50;;
40609;SDS011;26316;55.976;37.140;2023-04-25T08:06:54;7.65;;;2.53;;
40609;SDS011;26316;55.976;37.140;2023-04-25T08:09:26;6.78;;;2.58;;
40609;SDS011;26316;55.976;37.140;2023-04-25T08:11:53;5.80;;;2.92;;
40609;SDS011;26316;55.976;37.140;2023-04-25T08:14:24;5.60;;;2.95;;
40609;SDS011;26316;55.976;37.140;2023-04-25T08:16:50;4.72;;;2.58;;
40609;SDS011;26316;55.976;37.140;2023-04-25T08:19:17;4.95;;;2.47;;
40609;SDS011;26316;55.976;37.140;2023-04-25T08:21:45;3.83;;;3.13;;
40609;SDS011;26316;55.976;37.140;2023-04-25T08:24:15;4.60;;;2.83;;
40609;SDS011;26316;55.976;37.140;2023-04-25T08:26:42;5.47;;;2.53;;
40609;SDS011;26316;55.976;37.140;2023-04-25T08:29:11;6.55;;;3.15;;
40609;SDS011;26316;55.976;37.140;2023-04-25T08:31:39;7.65;;;3.03;;
40609;SDS011;26316;55.976;37.140;2023-04-25T08:34:06;6.35;;;3.22;;
40609;SDS011;26316;55.976;37.140;2023-04-25T08:36:52;8.35;;;3.20;;
40609;SDS011;26316;55.976;37.140;2023-04-25T08:39:36;6.90;;;3.30;;
40609;SDS011;26316;55.976;37.140;2023-04-25T08:42:22;10.25;;;3.55;;
40609;SDS011;26316;55.976;37.140;2023-04-25T08:44:48;7.85;;;3.22;;
40609;SDS011;26316;55.976;37.140;2023-04-25T08:47:15;6.45;;;3.10;;
40609;SDS011;26316;55.976;37.140;2023-04-25T08:49:46;6.93;;;2.90;;
40609;SDS011;26316;55.976;37.140;2023-04-25T08:52:12;7.03;;;2.97;;
40609;SDS011;26316;55.976;37.140;2023-04-25T08:54:41;7.78;;;3.42;;
40609;SDS011;26316;55.976;37.140;2023-04-25T08:57:09;5.70;;;3.17;;
40609;SDS011;26316;55.976;37.140;2023-04-25T08:59:35;5.30;;;3.03;;
40609;SDS011;26316;55.976;37.140;2023-04-25T09:02:02;6.43;;;2.92;;
40609;SDS011;26316;55.976;37.140;2023-04-25T09:04:31;8.52;;;2.85;;
40609;SDS011;26316;55.976;37.140;2023-04-25T09:06:57;9.55;;;3.08;;
40609;SDS011;26316;55.976;37.140;2023-04-25T09:09:24;6.47;;;3.20;;
40609;SDS011;26316;55.976;37.140;2023-04-25T09:11:50;8.48;;;3.60;;
40609;SDS011;26316;55.976;37.140;2023-04-25T09:14:20;8.90;;;3.20;;
40609;SDS011;26316;55.976;37.140;2023-04-25T09:17:00;4.47;;;2.83;;
40609;SDS011;26316;55.976;37.140;2023-04-25T09:19:53;4.50;;;2.90;;
40609;SDS011;26316;55.976;37.140;2023-04-25T09:22:27;4.68;;;2.80;;
40609;SDS011;26316;55.976;37.140;2023-04-25T09:24:53;5.32;;;2.90;;
40609;SDS011;26316;55.976;37.140;2023-04-25T09:27:22;5.95;;;2.60;;
40609;SDS011;26316;55.976;37.140;2023-04-25T09:29:58;6.47;;;3.25;;
40609;SDS011;26316;55.976;37.140;2023-04-25T09:32:36;9.63;;;3.42;;
40609;SDS011;26316;55.976;37.140;2023-04-25T09:35:01;8.40;;;3.25;;
40609;SDS011;26316;55.976;37.140;2023-04-25T09:37:30;6.03;;;3.13;;
40609;SDS011;26316;55.976;37.140;2023-04-25T09:40:05;6.68;;;3.30;;
40609;SDS011;26316;55.976;37.140;2023-04-25T09:42:44;6.00;;;3.28;;
40609;SDS011;26316;55.976;37.140;2023-04-25T09:45:12;6.80;;;3.92;;
40609;SDS011;26316;55.976;37.140;2023-04-25T09:47:41;5.68;;;3.15;;
40609;SDS011;26316;55.976;37.140;2023-04-25T09:50:14;6.65;;;3.58;;
40609;SDS011;26316;55.976;37.140;2023-04-25T09:52:42;5.93;;;2.85;;
40609;SDS011;26316;55.976;37.140;2023-04-25T09:55:14;9.43;;;3.00;;
40609;SDS011;26316;55.976;37.140;2023-04-25T09:57:42;7.40;;;3.20;;
40609;SDS011;26316;55.976;37.140;2023-04-25T10:00:10;3.97;;;2.95;;
40609;SDS011;26316;55.976;37.140;2023-04-25T10:02:42;5.05;;;3.13;;
40609;SDS011;26316;55.976;37.140;2023-04-25T10:05:11;3.65;;;2.78;;
40609;SDS011;26316;55.976;37.140;2023-04-25T10:07:39;7.95;;;3.25;;
40609;SDS011;26316;55.976;37.140;2023-04-25T10:10:12;5.47;;;3.17;;
40609;SDS011;26316;55.976;37.140;2023-04-25T10:12:38;6.57;;;2.92;;
40609;SDS011;26316;55.976;37.140;2023-04-25T10:15:06;9.30;;;3.28;;
40609;SDS011;26316;55.976;37.140;2023-04-25T10:17:33;3.83;;;3.00;;
40609;SDS011;26316;55.976;37.140;2023-04-25T10:20:00;7.93;;;3.53;;
40609;SDS011;26316;55.976;37.140;2023-04-25T10:22:30;6.18;;;3.10;;
40609;SDS011;26316;55.976;37.140;2023-04-25T10:24:58;8.70;;;3.20;;
40609;SDS011;26316;55.976;37.140;2023-04-25T10:27:24;5.30;;;3.50;;
40609;SDS011;26316;55.976;37.140;2023-04-25T10:30:05;8.90;;;3.67;;
40609;SDS011;26316;55.976;37.140;2023-04-25T10:32:35;6.80;;;3.58;;
40609;SDS011;26316;55.976;37.140;2023-04-25T10:35:17;7.60;;;3.65;;
40609;SDS011;26316;55.976;37.140;2023-04-25T10:40:36;7.07;;;3.67;;
40609;SDS011;26316;55.976;37.140;2023-04-25T10:45:52;6.00;;;3.17;;
40609;SDS011;26316;55.976;37.140;2023-04-25T10:48:24;12.05;;;3.15;;
40609;SDS011;26316;55.976;37.140;2023-04-25T10:51:06;8.52;;;3.85;;
40609;SDS011;26316;55.976;37.140;2023-04-25T10:53:45;8.55;;;3.30;;
40609;SDS011;26316;55.976;37.140;2023-04-25T10:56:16;7.72;;;2.80;;
40609;SDS011;26316;55.976;37.140;2023-04-25T10:58:44;5.28;;;2.78;;
40609;SDS011;26316;55.976;37.140;2023-04-25T11:01:11;4.00;;;3.10;;
40609;SDS011;26316;55.976;37.140;2023-04-25T11:03:40;5.78;;;3.08;;
40609;SDS011;26316;55.976;37.140;2023-04-25T11:06:09;7.50;;;2.80;;
40609;SDS011;26316;55.976;37.140;2023-04-25T11:08:49;5.47;;;2.90;;
40609;SDS011;26316;55.976;37.140;2023-04-25T11:11:16;5.95;;;2.55;;
40609;SDS011;26316;55.976;37.140;2023-04-25T11:13:43;9.80;;;2.92;;
40609;SDS011;26316;55.976;37.140;2023-04-25T11:16:09;4.57;;;2.78;;
40609;SDS011;26316;55.976;37.140;2023-04-25T11:18:35;8.43;;;2.88;;
40609;SDS011;26316;55.976;37.140;2023-04-25T11:21:00;10.85;;;3.22;;
40609;SDS011;26316;55.976;37.140;2023-04-25T11:23:28;5.10;;;3.00;;
40609;SDS011;26316;55.976;37.140;2023-04-25T11:25:55;3.30;;;3.00;;
40609;SDS011;26316;55.976;37.140;2023-04-25T11:28:21;6.40;;;2.88;;
40609;SDS011;26316;55.976;37.140;2023-04-25T11:30:48;6.03;;;2.72;;
40609;SDS011;26316;55.976;37.140;2023-04-25T11:33:17;3.50;;;2.53;;
40609;SDS011;26316;55.976;37.140;2023-04-25T11:35:43;5.40;;;2.90;;
40609;SDS011;26316;55.976;37.140;2023-04-25T11:38:09;5.03;;;2.85;;
40609;SDS011;26316;55.976;37.140;2023-04-25T11:40:35;7.68;;;2.75;;
40609;SDS011;26316;55.976;37.140;2023-04-25T11:43:01;9.75;;;3.13;;
40609;SDS011;26316;55.976;37.140;2023-04-25T11:45:27;4.55;;;3.15;;
40609;SDS011;26316;55.976;37.140;2023-04-25T11:47:55;3.72;;;2.80;;
40609;SDS011;26316;55.976;37.140;2023-04-25T11:50:21;4.15;;;2.85;;
40609;SDS011;26316;55.976;37.140;2023-04-25T11:52:47;5.07;;;2.53;;
40609;SDS011;26316;55.976;37.140;2023-04-25T11:55:17;4.85;;;2.80;;
40609;SDS011;26316;55.976;37.140;2023-04-25T11:57:49;4.68;;;2.90;;
40609;SDS011;26316;55.976;37.140;2023-04-25T12:00:21;6.60;;;3.28;;
40609;SDS011;26316;55.976;37.140;2023-04-25T12:02:52;4.43;;;3.28;;
40609;SDS011;26316;55.976;37.140;2023-04-25T12:05:18;8.55;;;2.47;;
40609;SDS011;26316;55.976;37.140;2023-04-25T12:07:46;5.03;;;2.75;;
40609;SDS011;26316;55.976;37.140;2023-04-25T12:10:12;6.53;;;3.20;;
40609;SDS011;26316;55.976;37.140;2023-04-25T12:12:45;8.25;;;3.38;;
40609;SDS011;26316;55.976;37.140;2023-04-25T12:15:13;5.32;;;2.70;;
40609;SDS011;26316;55.976;37.140;2023-04-25T12:20:12;5.88;;;3.05;;
40609;SDS011;26316;55.976;37.140;2023-04-25T12:22:43;4.10;;;2.70;;
40609;SDS011;26316;55.976;37.140;2023-04-25T12:25:13;9.65;;;3.55;;
40609;SDS011;26316;55.976;37.140;2023-04-25T12:28:12;7.13;;;2.80;;
40609;SDS011;26316;55.976;37.140;2023-04-25T12:30:52;8.52;;;2.75;;
40609;SDS011;26316;55.976;37.140;2023-04-25T12:33:32;7.45;;;2.70;;
40609;SDS011;26316;55.976;37.140;2023-04-25T12:35:59;4.43;;;2.85;;
40609;SDS011;26316;55.976;37.140;2023-04-25T12:38:29;8.90;;;2.63;;
40609;SDS011;26316;55.976;37.140;2023-04-25T12:40:57;3.63;;;2.65;;
40609;SDS011;26316;55.976;37.140;2023-04-25T12:43:23;9.00;;;3.03;;
40609;SDS011;26316;55.976;37.140;2023-04-25T12:45:53;3.97;;;2.63;;
40609;SDS011;26316;55.976;37.140;2023-04-25T12:48:20;4.05;;;2.33;;
40609;SDS011;26316;55.976;37.140;2023-04-25T12:50:47;5.47;;;2.30;;
40609;SDS011;26316;55.976;37.140;2023-04-25T12:53:18;5.20;;;3.00;;
40609;SDS011;26316;55.976;37.140;2023-04-25T12:55:44;3.63;;;2.10;;
40609;SDS011;26316;55.976;37.140;2023-04-25T12:58:14;4.28;;;2.63;;
40609;SDS011;26316;55.976;37.140;2023-04-25T13:00:41;7.28;;;2.40;;
40609;SDS011;26316;55.976;37.140;2023-04-25T13:03:07;5.82;;;2.47;;
40609;SDS011;26316;55.976;37.140;2023-04-25T13:05:34;5.10;;;2.17;;
40609;SDS011;26316;55.976;37.140;2023-04-25T13:08:00;4.47;;;2.25;;
40609;SDS011;26316;55.976;37.140;2023-04-25T13:10:26;8.88;;;2.83;;
40609;SDS011;26316;55.976;37.140;2023-04-25T13:12:52;4.93;;;2.50;;
40609;SDS011;26316;55.976;37.140;2023-04-25T13:15:18;3.28;;;2.00;;
40609;SDS011;26316;55.976;37.140;2023-04-25T13:17:44;4.70;;;2.45;;
40609;SDS011;26316;55.976;37.140;2023-04-25T13:20:10;5.95;;;2.45;;
40609;SDS011;26316;55.976;37.140;2023-04-25T13:22:37;4.68;;;2.10;;
40609;SDS011;26316;55.976;37.140;2023-04-25T13:25:04;6.22;;;2.17;;
40609;SDS011;26316;55.976;37.140;2023-04-25T13:27:31;6.18;;;2.45;;
40609;SDS011;26316;55.976;37.140;2023-04-25T13:29:59;9.02;;;2.67;;
40609;SDS011;26316;55.976;37.140;2023-04-25T13:32:29;3.00;;;2.28;;
40609;SDS011;26316;55.976;37.140;2023-04-25T13:34:55;10.85;;;2.38;;
40609;SDS011;26316;55.976;37.140;2023-04-25T13:37:21;5.93;;;2.22;;
40609;SDS011;26316;55.976;37.140;2023-04-25T13:39:49;10.88;;;2.42;;
40609;SDS011;26316;55.976;37.140;2023-04-25T13:42:16;4.75;;;2.42;;
40609;SDS011;26316;55.976;37.140;2023-04-25T13:44:41;6.15;;;2.28;;
40609;SDS011;26316;55.976;37.140;2023-04-25T13:47:07;6.75;;;2.22;;
40609;SDS011;26316;55.976;37.140;2023-04-25T13:49:33;4.00;;;2.33;;
40609;SDS011;26316;55.976;37.140;2023-04-25T13:51:58;7.00;;;2.45;;
40609;SDS011;26316;55.976;37.140;2023-04-25T13:54:24;5.05;;;2.20;;
40609;SDS011;26316;55.976;37.140;2023-04-25T13:56:51;8.50;;;2.15;;
40609;SDS011;26316;55.976;37.140;2023-04-25T13:59:17;5.55;;;2.25;;
40609;SDS011;26316;55.976;37.140;2023-04-25T14:01:43;5.10;;;2.03;;
40609;SDS011;26316;55.976;37.140;2023-04-25T14:04:10;6.82;;;2.22;;
40609;SDS011;26316;55.976;37.140;2023-04-25T14:06:36;5.15;;;2.35;;
40609;SDS011;26316;55.976;37.140;2023-04-25T14:09:01;4.65;;;2.38;;
40609;SDS011;26316;55.976;37.140;2023-04-25T14:11:29;4.10;;;2.17;;
40609;SDS011;26316;55.976;37.140;2023-04-25T14:13:55;4.93;;;2.15;;
40609;SDS011;26316;55.976;37.140;2023-04-25T14:16:20;4.03;;;2.28;;
40609;SDS011;26316;55.976;37.140;2023-04-25T14:18:48;6.13;;;2.20;;
40609;SDS011;26316;55.976;37.140;2023-04-25T14:21:13;3.28;;;2.33;;
40609;SDS011;26316;55.976;37.140;2023-04-25T14:23:39;7.85;;;2.10;;
40609;SDS011;26316;55.976;37.140;2023-04-25T14:26:05;5.90;;;2.35;;
40609;SDS011;26316;55.976;37.140;2023-04-25T14:28:31;5.75;;;2.13;;
40609;SDS011;26316;55.976;37.140;2023-04-25T14:30:57;5.00;;;2.00;;
40609;SDS011;26316;55.976;37.140;2023-04-25T14:33:22;6.18;;;2.50;;
40609;SDS011;26316;55.976;37.140;2023-04-25T14:35:49;3.42;;;2.20;;
40609;SDS011;26316;55.976;37.140;2023-04-25T14:38:14;9.45;;;2.35;;
40609;SDS011;26316;55.976;37.140;2023-04-25T14:40:40;6.78;;;2.40;;
40609;SDS011;26316;55.976;37.140;2023-04-25T14:43:06;2.53;;;2.20;;
40609;SDS011;26316;55.976;37.140;2023-04-25T14:45:33;7.80;;;2.40;;
40609;SDS011;26316;55.976;37.140;2023-04-25T14:47:59;4.00;;;1.90;;
40609;SDS011;26316;55.976;37.140;2023-04-25T14:50:25;4.68;;;2.10;;
40609;SDS011;26316;55.976;37.140;2023-04-25T14:52:50;3.22;;;1.98;;
40609;SDS011;26316;55.976;37.140;2023-04-25T14:55:18;3.53;;;2.20;;
40609;SDS011;26316;55.976;37.140;2023-04-25T14:57:45;4.88;;;1.73;;